createdAt,value
2018-08-25T00:00:31.275Z,8.90
2018-08-25T00:02:59.863Z,8.90
2018-08-25T00:05:28.454Z,9.30
2018-08-25T00:07:57.023Z,9.00
2018-08-25T00:10:25.756Z,9.03
2018-08-25T00:12:54.278Z,8.83
2018-08-25T00:15:22.876Z,9.10
2018-08-25T00:17:51.445Z,8.90
2018-08-25T00:20:20.066Z,9.20
2018-08-25T00:22:48.762Z,9.77
2018-08-25T00:25:17.429Z,11.60
2018-08-25T00:27:46.024Z,9.43
2018-08-25T00:30:19.766Z,9.40
2018-08-25T00:32:48.408Z,10.30
2018-08-25T00:35:16.988Z,9.20
2018-08-25T00:37:45.530Z,9.67
2018-08-25T00:40:14.186Z,10.13
2018-08-25T00:42:42.945Z,10.00
2018-08-25T00:45:11.872Z,10.07
2018-08-25T00:47:40.515Z,8.20
2018-08-25T00:50:09.109Z,9.67
2018-08-25T00:52:37.783Z,9.20
2018-08-25T00:55:06.529Z,10.33
2018-08-25T00:57:35.168Z,9.20
2018-08-25T01:00:03.843Z,10.03
2018-08-25T01:02:32.456Z,10.60
2018-08-25T01:05:01.053Z,9.27
2018-08-25T01:07:29.626Z,9.77
2018-08-25T01:09:58.211Z,9.60
2018-08-25T01:12:26.857Z,10.07
2018-08-25T01:14:55.454Z,8.80
2018-08-25T01:17:24.034Z,8.10
2018-08-25T01:19:52.723Z,9.70
2018-08-25T01:22:21.380Z,9.47
2018-08-25T01:24:50.201Z,9.63
2018-08-25T01:27:18.944Z,8.67
2018-08-25T01:29:47.490Z,8.63
2018-08-25T01:32:16.056Z,9.87
2018-08-25T01:34:44.655Z,9.03
2018-08-25T01:37:13.193Z,9.87
2018-08-25T01:39:41.744Z,8.30
2018-08-25T01:42:10.337Z,8.97
2018-08-25T01:44:38.973Z,9.13
2018-08-25T01:47:07.663Z,8.10
2018-08-25T01:49:36.357Z,8.10
2018-08-25T01:52:16.052Z,9.00
2018-08-25T01:54:44.636Z,8.30
2018-08-25T01:57:13.179Z,8.43
2018-08-25T01:59:41.769Z,8.80
2018-08-25T02:02:10.370Z,9.57
2018-08-25T02:04:40.014Z,8.90
2018-08-25T02:07:08.631Z,8.60
2018-08-25T02:09:37.239Z,8.87
2018-08-25T02:12:05.921Z,9.00
2018-08-25T02:14:34.446Z,8.30
2018-08-25T02:17:03.070Z,8.23
2018-08-25T02:19:31.658Z,8.93
2018-08-25T02:22:00.317Z,9.30
2018-08-25T02:24:28.848Z,9.13
2018-08-25T02:26:57.447Z,8.57
2018-08-25T02:29:25.960Z,9.20
2018-08-25T02:31:54.537Z,9.40
2018-08-25T02:34:23.095Z,8.90
2018-08-25T02:36:51.694Z,7.67
2018-08-25T02:39:20.270Z,7.93
2018-08-25T02:41:48.846Z,9.23
2018-08-25T02:44:17.438Z,8.50
2018-08-25T02:46:46.021Z,9.00
2018-08-25T02:49:14.595Z,8.70
2018-08-25T02:51:43.186Z,8.60
2018-08-25T02:54:11.720Z,9.50
2018-08-25T02:56:40.340Z,8.07
2018-08-25T02:59:08.933Z,8.00
2018-08-25T03:01:37.498Z,9.60
2018-08-25T03:04:06.094Z,9.70
2018-08-25T03:06:34.752Z,8.67
2018-08-25T03:09:04.167Z,9.17
2018-08-25T03:11:32.700Z,10.20
2018-08-25T03:14:01.256Z,10.00
2018-08-25T03:16:29.846Z,10.07
2018-08-25T03:18:59.432Z,10.67
2018-08-25T03:21:28.005Z,11.60
2018-08-25T03:23:56.620Z,10.60
2018-08-25T03:26:25.227Z,9.97
2018-08-25T03:28:53.885Z,11.13
2018-08-25T03:31:22.513Z,11.43
2018-08-25T03:33:51.139Z,9.37
2018-08-25T03:36:19.772Z,10.13
2018-08-25T03:38:48.396Z,10.30
2018-08-25T03:41:17.055Z,10.33
2018-08-25T03:43:45.614Z,10.07
2018-08-25T03:46:14.190Z,10.80
2018-08-25T03:48:42.790Z,10.30
2018-08-25T03:51:11.410Z,10.20
2018-08-25T03:53:39.980Z,9.57
2018-08-25T03:56:08.635Z,11.03
2018-08-25T03:58:37.166Z,10.03
2018-08-25T04:01:05.975Z,10.90
2018-08-25T04:03:34.594Z,9.90
2018-08-25T04:06:03.119Z,9.50
2018-08-25T04:08:31.748Z,10.50
2018-08-25T04:11:00.424Z,10.20
2018-08-25T04:13:28.994Z,9.80
2018-08-25T04:15:57.569Z,11.57
2018-08-25T04:18:26.121Z,9.43
2018-08-25T04:20:54.742Z,8.93
2018-08-25T04:23:23.388Z,9.83
2018-08-25T04:25:51.981Z,10.70
2018-08-25T04:28:20.525Z,8.60
2018-08-25T04:30:49.107Z,9.10
2018-08-25T04:33:17.745Z,8.93
2018-08-25T04:35:46.289Z,9.43
2018-08-25T04:38:14.867Z,10.20
2018-08-25T04:40:43.430Z,10.60
2018-08-25T04:43:12.094Z,9.10
2018-08-25T04:45:40.726Z,10.77
2018-08-25T04:48:09.355Z,9.90
2018-08-25T04:50:37.924Z,10.00
2018-08-25T04:53:06.604Z,9.47
2018-08-25T04:55:35.184Z,11.10
2018-08-25T04:58:03.747Z,9.03
2018-08-25T05:00:35.908Z,10.17
2018-08-25T05:03:04.550Z,9.57
2018-08-25T05:05:33.087Z,9.87
2018-08-25T05:08:01.654Z,10.17
2018-08-25T05:10:30.310Z,9.70
2018-08-25T05:12:58.958Z,9.30
2018-08-25T05:15:27.648Z,9.50
2018-08-25T05:17:56.212Z,9.07
2018-08-25T05:20:24.829Z,8.97
2018-08-25T05:22:53.443Z,8.97
2018-08-25T05:25:22.005Z,8.50
2018-08-25T05:27:50.701Z,8.90
2018-08-25T05:30:19.210Z,8.30
2018-08-25T05:32:47.808Z,8.30
2018-08-25T05:35:16.492Z,8.60
2018-08-25T05:37:45.141Z,8.20
2018-08-25T05:40:13.706Z,7.90
2018-08-25T05:42:42.306Z,8.20
2018-08-25T05:45:10.881Z,8.07
2018-08-25T05:47:39.440Z,9.17
2018-08-25T05:50:08.038Z,8.40
2018-08-25T05:52:36.741Z,8.10
2018-08-25T05:55:05.420Z,8.07
2018-08-25T05:57:35.080Z,8.80
2018-08-25T06:00:03.800Z,8.90
2018-08-25T06:02:32.399Z,8.20
2018-08-25T06:05:01.000Z,9.27
2018-08-25T06:07:29.593Z,7.87
2018-08-25T06:09:58.359Z,7.40
2018-08-25T06:12:26.943Z,7.63
2018-08-25T06:14:55.530Z,7.60
2018-08-25T06:17:24.017Z,8.03
2018-08-25T06:19:52.613Z,7.33
2018-08-25T06:22:21.140Z,8.07
2018-08-25T06:24:49.749Z,7.50
2018-08-25T06:27:18.287Z,8.50
2018-08-25T06:29:46.939Z,8.00
2018-08-25T06:32:15.572Z,7.20
2018-08-25T06:34:44.181Z,7.00
2018-08-25T06:37:12.767Z,7.43
2018-08-25T06:39:41.320Z,7.07
2018-08-25T06:42:11.042Z,6.90
2018-08-25T06:44:39.595Z,6.40
2018-08-25T06:47:08.246Z,7.33
2018-08-25T06:49:36.799Z,6.50
2018-08-25T06:52:05.724Z,7.33
2018-08-25T06:54:34.375Z,6.60
2018-08-25T06:57:03.010Z,6.33
2018-08-25T06:59:31.590Z,6.10
2018-08-25T07:02:00.128Z,5.03
2018-08-25T07:04:28.813Z,6.60
2018-08-25T07:06:57.317Z,7.00
2018-08-25T07:09:25.943Z,6.27
2018-08-25T07:11:54.469Z,5.67
2018-08-25T07:14:24.076Z,5.43
2018-08-25T07:16:52.692Z,5.70
2018-08-25T07:19:21.301Z,4.90
2018-08-25T07:21:49.935Z,5.53
2018-08-25T07:24:18.543Z,4.93
2018-08-25T07:26:47.070Z,5.20
2018-08-25T07:29:15.659Z,6.13
2018-08-25T07:31:44.350Z,5.43
2018-08-25T07:34:12.952Z,5.07
2018-08-25T07:36:41.564Z,5.70
2018-08-25T07:39:12.154Z,5.93
2018-08-25T07:41:40.940Z,5.40
2018-08-25T07:44:09.843Z,5.90
2018-08-25T07:46:39.579Z,6.13
2018-08-25T07:49:09.353Z,6.00
2018-08-25T07:51:38.141Z,6.30
2018-08-25T07:54:06.799Z,6.30
2018-08-25T07:56:35.337Z,6.17
2018-08-25T07:59:04.112Z,5.83
2018-08-25T08:01:32.610Z,5.83
2018-08-25T08:04:01.254Z,5.77
2018-08-25T08:06:30.833Z,4.83
2018-08-25T08:08:59.666Z,4.80
2018-08-25T08:11:28.356Z,4.40
2018-08-25T08:13:56.930Z,4.33
2018-08-25T08:16:25.558Z,4.53
2018-08-25T08:18:54.115Z,4.47
2018-08-25T08:21:22.670Z,4.30
2018-08-25T08:23:51.336Z,5.10
2018-08-25T08:26:19.922Z,4.00
2018-08-25T08:28:48.501Z,4.50
2018-08-25T08:31:17.155Z,5.00
2018-08-25T08:33:45.741Z,4.20
2018-08-25T08:36:14.379Z,3.93
2018-08-25T08:38:43.055Z,4.83
2018-08-25T08:41:11.734Z,4.53
2018-08-25T08:43:40.258Z,4.20
2018-08-25T08:46:08.823Z,4.83
2018-08-25T08:48:37.429Z,4.17
2018-08-25T08:51:06.182Z,4.00
2018-08-25T08:53:34.765Z,4.17
2018-08-25T08:56:03.489Z,4.10
2018-08-25T08:58:32.063Z,3.97
2018-08-25T09:01:00.607Z,4.63
2018-08-25T09:03:29.298Z,3.07
2018-08-25T09:05:57.856Z,3.10
2018-08-25T09:08:26.580Z,3.80
2018-08-25T09:10:55.150Z,4.27
2018-08-25T09:13:23.826Z,3.77
2018-08-25T09:15:52.533Z,2.60
2018-08-25T09:18:21.102Z,3.50
2018-08-25T09:20:49.679Z,3.60
2018-08-25T09:23:18.213Z,2.90
2018-08-25T09:25:46.823Z,2.63
2018-08-25T09:28:15.389Z,3.47
2018-08-25T09:30:43.987Z,2.47
2018-08-25T09:33:12.541Z,2.87
2018-08-25T09:35:41.116Z,2.73
2018-08-25T09:38:09.744Z,2.70
2018-08-25T09:40:38.306Z,2.67
2018-08-25T09:43:07.097Z,1.90
2018-08-25T09:45:35.872Z,2.17
2018-08-25T09:48:04.506Z,2.23
2018-08-25T09:50:33.085Z,2.30
2018-08-25T09:53:01.657Z,2.13
2018-08-25T09:55:30.358Z,2.10
2018-08-25T09:57:58.877Z,2.40
2018-08-25T10:00:27.565Z,1.90
2018-08-25T10:02:57.168Z,1.93
2018-08-25T10:05:25.783Z,1.90
2018-08-25T10:07:54.347Z,2.03
2018-08-25T10:10:23.033Z,2.30
2018-08-25T10:12:51.619Z,2.43
2018-08-25T10:15:20.190Z,2.27
2018-08-25T10:17:48.850Z,2.27
2018-08-25T10:20:17.439Z,2.60
2018-08-25T10:22:46.195Z,2.33
2018-08-25T10:25:14.759Z,2.30
2018-08-25T10:27:43.347Z,1.80
2018-08-25T10:30:12.042Z,2.20
2018-08-25T10:32:40.682Z,3.17
2018-08-25T10:35:09.356Z,1.90
2018-08-25T10:37:37.914Z,2.40
2018-08-25T10:40:06.604Z,2.33
2018-08-25T10:42:36.205Z,2.60
2018-08-25T10:45:05.273Z,3.03
2018-08-25T10:47:33.850Z,2.17
2018-08-25T10:50:02.424Z,2.40
2018-08-25T10:52:32.165Z,2.20
2018-08-25T10:55:00.664Z,2.80
2018-08-25T10:57:29.379Z,2.60
2018-08-25T10:59:57.958Z,2.80
2018-08-25T11:02:27.824Z,2.23
2018-08-25T11:04:56.373Z,2.67
2018-08-25T11:07:25.474Z,2.93
2018-08-25T11:09:54.779Z,2.50
2018-08-25T11:12:23.514Z,2.47
2018-08-25T11:14:52.133Z,3.30
2018-08-25T11:17:20.734Z,2.40
2018-08-25T11:19:49.385Z,2.90
2018-08-25T11:22:19.111Z,2.40
2018-08-25T11:24:47.680Z,3.00
2018-08-25T11:27:16.345Z,2.50
2018-08-25T11:29:44.956Z,3.07
2018-08-25T11:32:13.581Z,2.30
2018-08-25T11:34:42.609Z,2.53
2018-08-25T11:37:11.330Z,2.20
2018-08-25T11:39:39.849Z,2.80
2018-08-25T11:42:08.507Z,2.43
2018-08-25T11:44:37.033Z,2.73
2018-08-25T11:47:11.301Z,2.80
2018-08-25T11:49:39.897Z,2.83
2018-08-25T11:52:08.641Z,2.60
2018-08-25T11:54:37.207Z,3.13
2018-08-25T11:57:05.902Z,2.60
2018-08-25T11:59:34.407Z,2.70
2018-08-25T12:02:03.070Z,2.57
2018-08-25T12:04:31.713Z,2.17
2018-08-25T12:07:00.419Z,2.90
2018-08-25T12:09:29.189Z,2.80
2018-08-25T12:11:57.771Z,2.30
2018-08-25T12:14:26.275Z,3.33
2018-08-25T12:16:54.881Z,3.40
2018-08-25T12:19:23.452Z,2.87
2018-08-25T12:21:52.128Z,2.90
2018-08-25T12:24:20.862Z,2.40
2018-08-25T12:26:51.047Z,2.27
2018-08-25T12:29:19.665Z,3.07
2018-08-25T12:31:49.409Z,2.70
2018-08-25T12:34:18.032Z,3.37
2018-08-25T12:36:46.657Z,2.90
2018-08-25T12:39:15.301Z,3.10
2018-08-25T12:41:43.781Z,2.90
2018-08-25T12:44:12.366Z,3.10
2018-08-25T12:46:41.250Z,3.07
2018-08-25T12:49:10.235Z,2.67
2018-08-25T12:51:39.736Z,2.40
2018-08-25T12:54:09.614Z,2.67
2018-08-25T12:56:38.527Z,2.57
2018-08-25T12:59:07.531Z,3.20
2018-08-25T13:01:36.359Z,3.30
2018-08-25T13:04:05.271Z,2.93
2018-08-25T13:06:34.129Z,2.87
2018-08-25T13:09:03.231Z,2.40
2018-08-25T13:11:32.092Z,2.77
2018-08-25T13:14:00.999Z,2.67
2018-08-25T13:16:29.790Z,2.60
2018-08-25T13:18:58.827Z,3.00
2018-08-25T13:21:30.505Z,2.00
2018-08-25T13:23:59.444Z,2.00
2018-08-25T13:26:28.313Z,2.43
2018-08-25T13:28:56.985Z,2.20
2018-08-25T13:31:25.891Z,2.20
2018-08-25T13:33:54.783Z,1.60
2018-08-25T13:36:23.737Z,1.53
2018-08-25T13:38:53.532Z,1.60
2018-08-25T13:41:22.357Z,1.40
2018-08-25T13:43:52.150Z,1.60
2018-08-25T13:46:20.974Z,1.53
2018-08-25T13:48:49.876Z,1.43
2018-08-25T13:51:18.589Z,1.50
2018-08-25T13:53:47.512Z,1.77
2018-08-25T13:56:16.371Z,1.57
2018-08-25T13:58:45.269Z,1.43
2018-08-25T14:01:14.011Z,1.33
2018-08-25T14:03:42.662Z,1.70
2018-08-25T14:06:12.479Z,1.57
2018-08-25T14:08:41.212Z,1.20
2018-08-25T14:11:09.805Z,2.13
2018-08-25T14:13:38.475Z,2.17
2018-08-25T14:16:07.174Z,2.43
2018-08-25T14:18:35.778Z,2.83
2018-08-25T14:21:04.438Z,1.30
2018-08-25T14:23:33.219Z,1.97
2018-08-25T14:26:01.909Z,1.70
2018-08-25T14:28:30.525Z,1.90
2018-08-25T14:30:59.391Z,1.73
2018-08-25T14:33:28.036Z,1.77
2018-08-25T14:35:56.581Z,1.37
2018-08-25T14:38:25.241Z,1.17
2018-08-25T14:40:53.907Z,1.33
2018-08-25T14:43:22.618Z,1.13
2018-08-25T14:45:51.205Z,1.00
2018-08-25T14:48:19.781Z,1.27
2018-08-25T14:50:48.382Z,1.20
2018-08-25T14:53:16.950Z,1.03
2018-08-25T14:55:45.550Z,1.07
2018-08-25T14:58:14.855Z,0.97
2018-08-25T15:00:43.475Z,1.20
2018-08-25T15:03:12.083Z,1.10
2018-08-25T15:05:40.590Z,1.30
2018-08-25T15:08:09.152Z,1.10
2018-08-25T15:10:37.745Z,1.30
2018-08-25T15:13:06.489Z,0.87
2018-08-25T15:15:35.095Z,1.20
2018-08-25T15:18:03.661Z,0.93
2018-08-25T15:20:32.209Z,1.13
2018-08-25T15:23:00.864Z,0.80
2018-08-25T15:25:29.486Z,0.73
2018-08-25T15:27:58.016Z,0.60
2018-08-25T15:30:26.648Z,1.33
2018-08-25T15:32:55.279Z,0.97
2018-08-25T15:35:23.884Z,1.03
2018-08-25T15:37:52.484Z,0.70
2018-08-25T15:40:21.216Z,1.00
2018-08-25T15:42:49.813Z,1.13
2018-08-25T15:45:18.481Z,0.80
2018-08-25T15:47:47.061Z,1.10
2018-08-25T15:50:15.725Z,0.90
2018-08-25T15:52:44.435Z,0.90
2018-08-25T15:55:13.083Z,0.90
2018-08-25T15:57:41.634Z,0.87
2018-08-25T16:00:10.377Z,1.23
2018-08-25T16:02:39.011Z,1.07
2018-08-25T16:05:07.746Z,0.80
2018-08-25T16:07:36.574Z,0.60
2018-08-25T16:10:06.002Z,1.10
2018-08-25T16:12:34.672Z,0.90
2018-08-25T16:15:03.285Z,0.90
2018-08-25T16:17:32.040Z,0.80
2018-08-25T16:20:00.851Z,1.07
2018-08-25T16:22:29.413Z,0.87
2018-08-25T16:24:58.616Z,0.90
2018-08-25T16:27:27.406Z,0.70
2018-08-25T16:29:56.030Z,1.20
2018-08-25T16:32:24.701Z,1.10
2018-08-25T16:34:53.337Z,1.00
2018-08-25T16:37:21.968Z,1.43
2018-08-25T16:39:50.667Z,1.10
2018-08-25T16:42:19.371Z,1.30
2018-08-25T16:44:47.909Z,1.40
2018-08-25T16:47:16.452Z,1.10
2018-08-25T16:49:45.031Z,1.33
2018-08-25T16:52:13.662Z,0.87
2018-08-25T16:54:42.355Z,1.40
2018-08-25T16:57:12.100Z,1.00
2018-08-25T16:59:40.850Z,1.27
2018-08-25T17:02:10.537Z,0.77
2018-08-25T17:04:39.238Z,1.00
2018-08-25T17:07:07.878Z,1.30
2018-08-25T17:09:36.536Z,1.50
2018-08-25T17:12:05.226Z,1.20
2018-08-25T17:14:33.808Z,1.23
2018-08-25T17:17:02.493Z,1.00
2018-08-25T17:19:31.050Z,1.77
2018-08-25T17:21:59.814Z,1.37
2018-08-25T17:24:28.373Z,1.50
2018-08-25T17:26:57.047Z,1.87
2018-08-25T17:29:25.635Z,1.37
2018-08-25T17:31:54.436Z,1.73
2018-08-25T17:34:23.274Z,1.40
2018-08-25T17:36:52.131Z,1.30
2018-08-25T17:39:20.974Z,1.40
2018-08-25T17:41:49.869Z,1.13
2018-08-25T17:44:18.748Z,1.43
2018-08-25T17:46:47.651Z,1.03
2018-08-25T17:49:16.464Z,1.43
2018-08-25T17:51:45.293Z,1.43
2018-08-25T17:54:14.043Z,2.00
2018-08-25T17:56:42.914Z,1.23
2018-08-25T17:59:11.774Z,1.10
2018-08-25T18:01:40.768Z,1.13
2018-08-25T18:04:10.281Z,2.20
2018-08-25T18:06:39.315Z,1.40
2018-08-25T18:09:08.501Z,1.47
2018-08-25T18:11:37.514Z,1.30
2018-08-25T18:14:06.437Z,1.50
2018-08-25T18:16:35.254Z,1.23
2018-08-25T18:19:04.104Z,1.20
2018-08-25T18:21:32.972Z,1.80
2018-08-25T18:24:01.734Z,1.50
2018-08-25T18:26:30.644Z,1.83
2018-08-25T18:28:59.495Z,1.43
2018-08-25T18:31:28.375Z,1.30
2018-08-25T18:33:57.322Z,1.47
2018-08-25T18:36:26.150Z,1.47
2018-08-25T18:38:55.022Z,1.63
2018-08-25T18:41:23.872Z,1.80
2018-08-25T18:43:52.430Z,1.80
2018-08-25T18:46:21.004Z,2.20
2018-08-25T18:48:49.597Z,2.20
2018-08-25T18:51:18.245Z,2.27
2018-08-25T18:53:46.827Z,2.03
2018-08-25T18:56:15.411Z,2.30
2018-08-25T18:58:44.046Z,2.10
2018-08-25T19:01:12.621Z,2.30
2018-08-25T19:03:41.275Z,2.23
2018-08-25T19:06:09.951Z,1.90
2018-08-25T19:08:38.600Z,2.13
2018-08-25T19:11:07.174Z,1.97
2018-08-25T19:13:35.673Z,1.87
2018-08-25T19:16:04.289Z,1.90
2018-08-25T19:18:32.913Z,2.27
2018-08-25T19:21:01.591Z,1.70
2018-08-25T19:23:30.166Z,1.90
2018-08-25T19:25:58.745Z,2.07
2018-08-25T19:28:27.249Z,2.47
2018-08-25T19:30:55.861Z,1.80
2018-08-25T19:33:24.415Z,2.70
2018-08-25T19:35:52.979Z,3.87
2018-08-25T19:38:21.718Z,2.80
2018-08-25T19:40:50.258Z,2.70
2018-08-25T19:43:18.826Z,3.07
2018-08-25T19:45:47.471Z,3.20
2018-08-25T19:48:16.152Z,2.60
2018-08-25T19:50:44.731Z,4.50
2018-08-25T19:53:13.271Z,2.77
2018-08-25T19:55:41.849Z,2.57
2018-08-25T19:58:10.516Z,2.67
2018-08-25T20:00:39.104Z,2.13
2018-08-25T20:03:07.699Z,2.67
2018-08-25T20:05:36.426Z,2.10
2018-08-25T20:08:05.343Z,2.03
2018-08-25T20:10:33.927Z,2.77
2018-08-25T20:13:02.497Z,2.50
2018-08-25T20:15:31.038Z,2.90
2018-08-25T20:17:59.690Z,2.53
2018-08-25T20:20:28.358Z,2.50
2018-08-25T20:22:57.102Z,2.30
2018-08-25T20:25:25.654Z,2.30
2018-08-25T20:27:54.254Z,2.10
2018-08-25T20:30:22.926Z,2.60
2018-08-25T20:32:51.535Z,2.73
2018-08-25T20:35:20.098Z,2.80
2018-08-25T20:37:48.742Z,2.67
2018-08-25T20:40:18.440Z,3.77
2018-08-25T20:42:47.072Z,3.30
2018-08-25T20:45:15.632Z,3.30
2018-08-25T20:47:44.301Z,3.83
2018-08-25T20:50:12.937Z,2.87
2018-08-25T20:52:41.537Z,3.77
2018-08-25T20:55:10.083Z,3.27
2018-08-25T20:57:38.683Z,3.10
2018-08-25T21:00:07.365Z,3.30
2018-08-25T21:02:36.048Z,3.63
2018-08-25T21:05:04.626Z,3.37
2018-08-25T21:07:33.240Z,3.20
2018-08-25T21:10:01.941Z,2.83
2018-08-25T21:12:30.553Z,2.70
2018-08-25T21:14:59.055Z,3.40
2018-08-25T21:17:27.646Z,3.20
2018-08-25T21:19:56.207Z,3.23
2018-08-25T21:22:24.740Z,3.30
2018-08-25T21:24:53.250Z,3.37
2018-08-25T21:27:21.836Z,3.10
2018-08-25T21:29:50.393Z,3.47
2018-08-25T21:32:18.942Z,3.30
2018-08-25T21:34:47.546Z,3.00
2018-08-25T21:37:16.309Z,3.30
2018-08-25T21:39:44.855Z,3.10
2018-08-25T21:42:13.477Z,4.17
2018-08-25T21:44:42.041Z,3.47
2018-08-25T21:47:10.612Z,4.17
2018-08-25T21:49:39.237Z,3.97
2018-08-25T21:52:07.829Z,3.20
2018-08-25T21:54:36.394Z,3.80
2018-08-25T21:57:04.946Z,3.97
2018-08-25T21:59:33.519Z,3.90
2018-08-25T22:02:02.107Z,4.47
2018-08-25T22:04:30.743Z,4.07
2018-08-25T22:06:59.337Z,3.97
2018-08-25T22:09:27.966Z,3.80
2018-08-25T22:11:56.475Z,4.53
2018-08-25T22:14:25.034Z,4.63
2018-08-25T22:16:54.724Z,5.00
2018-08-25T22:19:23.303Z,5.03
2018-08-25T22:21:51.945Z,5.00
2018-08-25T22:24:20.555Z,4.80
2018-08-25T22:26:49.054Z,5.47
2018-08-25T22:29:17.659Z,5.73
2018-08-25T22:31:46.265Z,6.47
2018-08-25T22:34:14.884Z,5.77
2018-08-25T22:36:43.416Z,6.10
2018-08-25T22:39:12.916Z,6.20
2018-08-25T22:41:41.587Z,5.90
2018-08-25T22:44:10.975Z,5.67
2018-08-25T22:46:39.527Z,5.10
2018-08-25T22:49:08.780Z,5.17
2018-08-25T22:51:37.621Z,5.47
2018-08-25T22:54:06.451Z,6.17
2018-08-25T22:56:35.021Z,5.07
2018-08-25T22:59:03.592Z,5.63
2018-08-25T23:01:32.273Z,4.30
2018-08-25T23:04:00.976Z,5.03
2018-08-25T23:06:29.505Z,5.00
2018-08-25T23:08:58.037Z,4.87
2018-08-25T23:11:26.599Z,5.00
2018-08-25T23:13:55.198Z,5.10
2018-08-25T23:16:23.786Z,4.63
2018-08-25T23:18:52.416Z,4.53
2018-08-25T23:21:21.012Z,5.00
2018-08-25T23:23:49.639Z,4.20
2018-08-25T23:26:18.152Z,4.60
2018-08-25T23:28:46.728Z,4.23
2018-08-25T23:31:15.299Z,3.77
2018-08-25T23:33:43.880Z,5.27
2018-08-25T23:36:12.529Z,4.10
2018-08-25T23:38:41.071Z,3.90
2018-08-25T23:41:09.573Z,3.43
2018-08-25T23:43:38.149Z,3.50
2018-08-25T23:46:06.793Z,3.93
2018-08-25T23:48:35.401Z,3.53
2018-08-25T23:51:03.945Z,4.20
2018-08-25T23:53:32.515Z,3.67
2018-08-25T23:56:01.049Z,4.13
2018-08-25T23:58:29.653Z,3.20
